createdAt,value
2023-08-06T00:01:56.029Z,7.00
2023-08-06T00:04:22.948Z,7.27
2023-08-06T00:06:49.742Z,7.10
2023-08-06T00:09:19.241Z,6.40
2023-08-06T00:11:47.800Z,7.20
2023-08-06T00:14:16.556Z,6.67
2023-08-06T00:16:46.634Z,6.40
2023-08-06T00:19:13.572Z,6.80
2023-08-06T00:21:40.413Z,6.70
2023-08-06T00:24:07.343Z,6.40
2023-08-06T00:26:34.263Z,6.03
2023-08-06T00:29:01.088Z,5.73
2023-08-06T00:31:28.096Z,6.30
2023-08-06T00:33:54.894Z,5.77
2023-08-06T00:36:21.666Z,6.10
2023-08-06T00:38:48.366Z,6.30
2023-08-06T00:41:15.580Z,6.50
2023-08-06T00:43:42.402Z,5.53
2023-08-06T00:46:09.199Z,5.93
2023-08-06T00:48:36.465Z,6.60
2023-08-06T00:51:04.380Z,5.67
2023-08-06T00:53:31.400Z,6.00
2023-08-06T00:55:59.096Z,5.30
2023-08-06T00:58:26.266Z,5.87
2023-08-06T01:00:53.042Z,6.20
2023-08-06T01:03:20.266Z,6.10
2023-08-06T01:05:47.284Z,5.93
2023-08-06T01:08:33.090Z,5.23
2023-08-06T01:11:32.206Z,6.00
2023-08-06T01:14:31.540Z,5.60
2023-08-06T01:16:59.902Z,5.50
2023-08-06T01:19:26.734Z,5.97
2023-08-06T01:21:53.674Z,6.47
2023-08-06T01:24:20.825Z,6.23
2023-08-06T01:26:58.218Z,6.20
2023-08-06T01:29:32.325Z,6.00
2023-08-06T01:32:00.076Z,5.40
2023-08-06T01:34:31.907Z,6.10
2023-08-06T01:37:02.707Z,5.93
2023-08-06T01:39:29.676Z,6.47
2023-08-06T01:41:56.439Z,6.00
2023-08-06T01:44:23.255Z,6.10
2023-08-06T01:46:50.066Z,5.40
2023-08-06T01:49:16.862Z,7.83
2023-08-06T01:51:43.775Z,7.83
2023-08-06T01:54:10.596Z,6.13
2023-08-06T01:56:37.348Z,6.97
2023-08-06T01:59:05.474Z,7.70
2023-08-06T02:01:32.650Z,8.00
2023-08-06T02:03:59.510Z,6.80
2023-08-06T02:06:26.281Z,7.73
2023-08-06T02:08:53.821Z,8.03
2023-08-06T02:11:20.792Z,8.17
2023-08-06T02:13:48.002Z,7.67
2023-08-06T02:16:14.851Z,8.83
2023-08-06T02:18:41.655Z,8.40
2023-08-06T02:21:08.503Z,7.93
2023-08-06T02:23:35.264Z,8.43
2023-08-06T02:26:04.407Z,8.63
2023-08-06T02:28:32.016Z,8.57
2023-08-06T02:30:59.095Z,8.10
2023-08-06T02:33:26.112Z,8.70
2023-08-06T02:35:59.373Z,8.30
2023-08-06T02:38:26.405Z,8.13
2023-08-06T02:40:53.145Z,6.97
2023-08-06T02:43:19.950Z,6.63
2023-08-06T02:45:46.805Z,6.80
2023-08-06T02:48:14.419Z,7.23
2023-08-06T02:50:42.378Z,5.80
2023-08-06T02:53:16.251Z,6.40
2023-08-06T02:55:50.369Z,6.90
2023-08-06T02:58:17.535Z,6.43
2023-08-06T03:00:45.493Z,6.63
2023-08-06T03:03:12.348Z,6.37
2023-08-06T03:05:39.128Z,7.43
2023-08-06T03:08:05.878Z,6.10
2023-08-06T03:10:32.646Z,6.10
2023-08-06T03:12:59.810Z,6.37
2023-08-06T03:15:26.629Z,7.13
2023-08-06T03:17:56.553Z,6.50
2023-08-06T03:20:24.026Z,6.47
2023-08-06T03:22:51.312Z,6.23
2023-08-06T03:25:19.312Z,6.13
2023-08-06T03:27:46.154Z,5.87
2023-08-06T03:30:13.373Z,5.53
2023-08-06T03:32:40.293Z,5.90
2023-08-06T03:35:07.495Z,5.67
2023-08-06T03:37:34.533Z,6.30
2023-08-06T03:40:01.459Z,5.67
2023-08-06T03:42:28.195Z,5.80
2023-08-06T03:44:54.941Z,6.07
2023-08-06T03:47:21.792Z,5.67
2023-08-06T03:49:50.114Z,6.33
2023-08-06T03:52:16.862Z,5.80
2023-08-06T03:54:44.286Z,6.00
2023-08-06T03:57:11.518Z,5.90
2023-08-06T03:59:38.373Z,6.17
2023-08-06T04:02:05.195Z,5.90
2023-08-06T04:04:31.962Z,5.90
2023-08-06T04:06:58.753Z,7.03
2023-08-06T04:09:25.534Z,5.50
2023-08-06T04:11:52.650Z,5.87
2023-08-06T04:14:19.716Z,5.60
2023-08-06T04:16:46.527Z,5.90
2023-08-06T04:19:13.543Z,5.77
2023-08-06T04:21:40.283Z,6.00
2023-08-06T04:24:07.119Z,6.20
2023-08-06T04:26:34.019Z,5.97
2023-08-06T04:29:00.811Z,5.70
2023-08-06T04:31:28.062Z,5.77
2023-08-06T04:33:55.135Z,6.13
2023-08-06T04:36:22.206Z,5.23
2023-08-06T04:38:49.855Z,5.70
2023-08-06T04:41:16.795Z,6.27
2023-08-06T04:43:43.729Z,6.13
2023-08-06T04:46:10.649Z,5.50
2023-08-06T04:48:37.620Z,5.60
2023-08-06T04:51:04.601Z,6.60
2023-08-06T04:53:32.124Z,6.00
2023-08-06T04:55:59.052Z,6.20
2023-08-06T04:58:26.050Z,5.97
2023-08-06T05:00:54.893Z,6.80
2023-08-06T05:03:22.054Z,6.27
2023-08-06T05:05:49.558Z,6.90
2023-08-06T05:08:17.954Z,6.43
2023-08-06T05:10:45.966Z,6.17
2023-08-06T05:13:13.609Z,6.90
2023-08-06T05:15:43.587Z,6.03
2023-08-06T05:18:10.829Z,6.40
2023-08-06T05:20:41.853Z,6.50
2023-08-06T05:23:09.048Z,7.10
2023-08-06T05:25:36.858Z,7.60
2023-08-06T05:28:04.316Z,6.23
2023-08-06T05:30:31.800Z,6.83
2023-08-06T05:32:58.757Z,6.70
2023-08-06T05:35:26.118Z,6.33
2023-08-06T05:37:54.203Z,7.30
2023-08-06T05:40:21.284Z,6.20
2023-08-06T05:42:48.251Z,6.30
2023-08-06T05:45:15.902Z,6.50
2023-08-06T05:47:42.856Z,7.07
2023-08-06T05:50:10.516Z,6.27
2023-08-06T05:52:37.470Z,5.37
2023-08-06T05:55:04.751Z,5.60
2023-08-06T05:57:31.645Z,5.20
2023-08-06T05:59:58.595Z,5.00
2023-08-06T06:02:25.623Z,5.00
2023-08-06T06:04:52.689Z,4.90
2023-08-06T06:07:20.478Z,5.27
2023-08-06T06:09:47.431Z,5.27
2023-08-06T06:12:14.615Z,5.03
2023-08-06T06:14:41.560Z,5.20
2023-08-06T06:17:08.496Z,4.70
2023-08-06T06:19:35.400Z,5.10
2023-08-06T06:22:02.322Z,4.90
2023-08-06T06:24:30.246Z,5.63
2023-08-06T06:26:57.192Z,5.90
2023-08-06T06:29:24.346Z,6.03
2023-08-06T06:31:51.304Z,4.77
2023-08-06T06:34:18.558Z,5.70
2023-08-06T06:36:45.621Z,5.60
2023-08-06T06:39:12.596Z,6.03
2023-08-06T06:41:39.646Z,5.50
2023-08-06T06:44:07.358Z,5.03
2023-08-06T06:46:34.247Z,4.40
2023-08-06T06:49:01.154Z,4.83
2023-08-06T06:51:28.247Z,5.10
2023-08-06T06:53:55.317Z,5.77
2023-08-06T06:56:23.462Z,3.80
2023-08-06T06:58:50.404Z,4.77
2023-08-06T07:01:17.621Z,4.53
2023-08-06T07:03:44.639Z,4.30
2023-08-06T07:06:13.290Z,4.03
2023-08-06T07:08:40.286Z,3.60
2023-08-06T07:11:08.240Z,3.90
2023-08-06T07:13:35.932Z,3.13
2023-08-06T07:16:03.245Z,3.33
2023-08-06T07:18:30.279Z,3.53
2023-08-06T07:20:57.461Z,3.20
2023-08-06T07:23:26.371Z,3.07
2023-08-06T07:25:53.344Z,2.90
2023-08-06T07:28:20.520Z,3.07
2023-08-06T07:30:48.080Z,3.53
2023-08-06T07:33:15.096Z,3.50
2023-08-06T07:35:44.568Z,3.67
2023-08-06T07:38:11.725Z,3.73
2023-08-06T07:40:39.854Z,3.60
2023-08-06T07:43:06.930Z,4.53
2023-08-06T07:45:35.976Z,4.17
2023-08-06T07:48:03.773Z,4.70
2023-08-06T07:50:31.250Z,4.20
2023-08-06T07:52:58.170Z,5.13
2023-08-06T07:55:25.197Z,4.50
2023-08-06T07:57:52.139Z,5.50
2023-08-06T08:00:19.277Z,5.60
2023-08-06T08:02:47.686Z,6.40
2023-08-06T08:05:14.699Z,5.93
2023-08-06T08:07:41.775Z,5.93
2023-08-06T08:10:09.145Z,5.23
2023-08-06T08:12:36.594Z,4.60
2023-08-06T08:15:04.443Z,4.33
2023-08-06T08:17:31.466Z,3.40
2023-08-06T08:19:58.453Z,4.10
2023-08-06T08:22:25.378Z,3.70
2023-08-06T08:24:52.329Z,4.30
2023-08-06T08:27:19.293Z,4.83
2023-08-06T08:29:46.274Z,5.10
2023-08-06T08:32:13.393Z,5.50
2023-08-06T08:34:40.842Z,4.90
2023-08-06T08:37:07.796Z,5.63
2023-08-06T08:39:34.744Z,5.90
2023-08-06T08:42:03.458Z,6.60
2023-08-06T08:44:33.266Z,7.33
2023-08-06T08:47:01.180Z,7.43
2023-08-06T08:49:28.965Z,8.20
2023-08-06T08:51:57.024Z,8.90
2023-08-06T08:54:28.416Z,10.97
2023-08-06T08:56:56.350Z,10.50
2023-08-06T08:59:23.427Z,10.80
2023-08-06T09:01:54.411Z,11.30
2023-08-06T09:04:23.055Z,10.73
2023-08-06T09:06:55.639Z,10.97
2023-08-06T09:09:34.745Z,11.70
2023-08-06T09:12:03.595Z,11.47
2023-08-06T09:14:30.872Z,11.70
2023-08-06T09:16:58.953Z,10.40
2023-08-06T09:19:27.939Z,10.57
2023-08-06T09:21:57.213Z,10.30
2023-08-06T09:24:24.777Z,10.90
2023-08-06T09:26:51.911Z,9.70
2023-08-06T09:29:19.599Z,10.83
2023-08-06T09:31:48.284Z,10.03
2023-08-06T09:34:18.985Z,11.00
2023-08-06T09:36:54.731Z,10.90
2023-08-06T09:39:30.298Z,11.70
2023-08-06T09:41:58.605Z,10.67
2023-08-06T09:44:28.020Z,9.93
2023-08-06T09:47:03.853Z,9.77
2023-08-06T09:49:33.726Z,10.30
2023-08-06T09:52:01.464Z,10.43
2023-08-06T09:54:31.410Z,10.77
2023-08-06T09:56:58.921Z,10.00
2023-08-06T09:59:26.570Z,9.53
2023-08-06T10:01:57.041Z,9.60
2023-08-06T10:04:26.672Z,9.40
2023-08-06T10:06:59.281Z,9.10
2023-08-06T10:09:26.298Z,9.00
2023-08-06T10:11:56.852Z,8.63
2023-08-06T10:14:31.732Z,9.13
2023-08-06T10:17:00.485Z,7.80
2023-08-06T10:19:28.879Z,9.00
2023-08-06T10:22:12.871Z,8.97
2023-08-06T10:24:50.576Z,9.47
2023-08-06T10:27:34.262Z,9.97
2023-08-06T10:30:29.800Z,10.63
2023-08-06T10:33:02.105Z,10.60
2023-08-06T10:35:32.194Z,10.03
2023-08-06T10:38:00.888Z,10.87
2023-08-06T10:40:27.853Z,9.80
2023-08-06T10:42:54.803Z,10.27
2023-08-06T10:45:22.069Z,10.90
2023-08-06T10:47:49.055Z,12.50
2023-08-06T10:50:20.496Z,13.03
2023-08-06T10:52:49.274Z,13.37
2023-08-06T10:55:30.210Z,15.17
2023-08-06T10:57:59.666Z,13.70
2023-08-06T11:00:27.295Z,13.80
2023-08-06T11:02:55.914Z,13.07
2023-08-06T11:05:23.029Z,15.20
2023-08-06T11:07:53.859Z,15.00
2023-08-06T11:10:20.894Z,14.20
2023-08-06T11:12:48.026Z,10.30
2023-08-06T11:15:15.099Z,9.70
2023-08-06T11:17:43.218Z,5.70
2023-08-06T11:20:10.772Z,4.90
2023-08-06T11:22:39.037Z,3.93
2023-08-06T11:25:08.390Z,3.20
2023-08-06T11:27:38.513Z,3.47
2023-08-06T11:30:06.500Z,3.07
2023-08-06T11:32:34.682Z,2.97
2023-08-06T11:35:11.724Z,2.53
2023-08-06T11:37:44.319Z,3.10
2023-08-06T11:40:12.591Z,2.20
2023-08-06T11:42:39.627Z,1.87
2023-08-06T11:45:06.939Z,1.80
2023-08-06T11:47:34.150Z,1.47
2023-08-06T11:50:01.609Z,1.20
2023-08-06T11:52:29.705Z,1.30
2023-08-06T11:55:09.854Z,1.23
2023-08-06T11:57:37.460Z,1.20
2023-08-06T12:00:05.678Z,1.30
2023-08-06T12:02:42.830Z,1.50
2023-08-06T12:05:10.883Z,1.43
2023-08-06T12:07:49.446Z,1.37
2023-08-06T12:10:17.893Z,1.20
2023-08-06T12:12:45.191Z,1.40
2023-08-06T12:15:12.811Z,1.60
2023-08-06T12:17:40.301Z,1.40
2023-08-06T12:20:09.090Z,1.60
2023-08-06T12:22:37.590Z,1.33
2023-08-06T12:25:09.464Z,1.30
2023-08-06T12:27:37.117Z,1.33
2023-08-06T12:30:05.357Z,1.47
2023-08-06T12:32:33.332Z,1.57
2023-08-06T12:35:01.603Z,1.20
2023-08-06T12:37:30.304Z,1.43
2023-08-06T12:39:57.243Z,1.37
2023-08-06T12:42:25.356Z,1.90
2023-08-06T12:44:52.679Z,1.70
2023-08-06T12:47:22.951Z,1.77
2023-08-06T12:49:55.939Z,1.67
2023-08-06T12:52:26.356Z,1.63
2023-08-06T12:55:03.957Z,1.47
2023-08-06T12:57:43.454Z,1.60
2023-08-06T13:00:17.970Z,1.77
2023-08-06T13:02:45.056Z,1.90
2023-08-06T13:05:12.485Z,1.90
2023-08-06T13:07:39.778Z,1.73
2023-08-06T13:10:07.337Z,2.20
2023-08-06T13:12:34.444Z,2.17
2023-08-06T13:15:01.466Z,2.10
2023-08-06T13:17:28.711Z,2.33
2023-08-06T13:19:58.829Z,2.60
2023-08-06T13:22:33.700Z,2.80
2023-08-06T13:25:07.767Z,2.80
2023-08-06T13:27:36.375Z,2.60
2023-08-06T13:30:04.918Z,3.07
2023-08-06T13:32:33.563Z,3.10
2023-08-06T13:35:00.902Z,2.83
2023-08-06T13:37:27.793Z,3.13
2023-08-06T13:39:56.218Z,3.40
2023-08-06T13:42:24.168Z,3.33
2023-08-06T13:44:51.308Z,3.10
2023-08-06T13:47:18.412Z,3.20
2023-08-06T13:49:45.612Z,3.57
2023-08-06T13:52:21.588Z,3.07
2023-08-06T13:54:49.298Z,3.03
2023-08-06T13:57:18.455Z,3.00
2023-08-06T13:59:45.497Z,3.37
2023-08-06T14:02:12.658Z,3.50
2023-08-06T14:04:41.586Z,3.00
2023-08-06T14:07:08.571Z,3.40
2023-08-06T14:09:36.003Z,3.63
2023-08-06T14:12:04.253Z,4.10
2023-08-06T14:14:31.331Z,3.60
2023-08-06T14:16:58.785Z,3.80
2023-08-06T14:19:26.641Z,3.83
2023-08-06T14:21:53.981Z,3.63
2023-08-06T14:24:20.920Z,3.23
2023-08-06T14:26:47.900Z,4.27
2023-08-06T14:29:16.543Z,4.43
2023-08-06T14:31:45.330Z,4.00
2023-08-06T14:34:12.215Z,4.00
2023-08-06T14:36:39.344Z,3.97
2023-08-06T14:39:06.377Z,3.20
2023-08-06T14:41:33.292Z,3.80
2023-08-06T14:44:00.295Z,3.80
2023-08-06T14:46:27.296Z,3.57
2023-08-06T14:48:54.315Z,3.30
2023-08-06T14:51:21.852Z,3.87
2023-08-06T14:53:49.699Z,3.77
2023-08-06T14:56:16.802Z,3.40
2023-08-06T14:58:43.835Z,3.97
2023-08-06T15:01:10.952Z,3.43
2023-08-06T15:03:38.109Z,3.67
2023-08-06T15:06:05.398Z,2.77
2023-08-06T15:08:32.376Z,2.77
2023-08-06T15:10:59.450Z,3.00
2023-08-06T15:13:30.373Z,2.50
2023-08-06T15:15:57.557Z,2.70
2023-08-06T15:18:24.707Z,3.27
2023-08-06T15:20:51.865Z,2.80
2023-08-06T15:23:18.797Z,2.40
2023-08-06T15:25:45.850Z,3.30
2023-08-06T15:28:12.778Z,3.03
2023-08-06T15:30:41.482Z,2.50
2023-08-06T15:33:08.934Z,2.53
2023-08-06T15:35:35.929Z,3.07
2023-08-06T15:38:02.864Z,3.00
2023-08-06T15:40:29.858Z,3.10
2023-08-06T15:42:56.793Z,3.30
2023-08-06T15:45:23.732Z,2.80
2023-08-06T15:47:50.740Z,3.10
2023-08-06T15:50:17.769Z,2.80
2023-08-06T15:52:44.953Z,3.10
2023-08-06T15:55:11.960Z,3.60
2023-08-06T15:57:39.432Z,3.20
2023-08-06T16:00:07.221Z,2.97
2023-08-06T16:02:34.259Z,3.13
2023-08-06T16:05:01.548Z,3.10
2023-08-06T16:07:29.257Z,3.00
2023-08-06T16:09:56.294Z,2.97
2023-08-06T16:12:23.642Z,3.10
2023-08-06T16:14:51.023Z,3.27
2023-08-06T16:17:19.023Z,3.47
2023-08-06T16:19:51.528Z,3.50
2023-08-06T16:22:19.929Z,3.40
2023-08-06T16:24:47.480Z,3.67
2023-08-06T16:27:14.424Z,3.50
2023-08-06T16:29:41.553Z,3.40
2023-08-06T16:32:08.710Z,3.67
2023-08-06T16:34:36.149Z,4.70
2023-08-06T16:37:05.476Z,3.10
2023-08-06T16:39:32.625Z,3.93
2023-08-06T16:42:00.202Z,3.70
2023-08-06T16:44:30.572Z,4.47
2023-08-06T16:46:57.586Z,4.50
2023-08-06T16:49:24.648Z,4.17
2023-08-06T16:51:51.715Z,3.90
2023-08-06T16:54:18.693Z,4.10
2023-08-06T16:56:45.729Z,4.20
2023-08-06T16:59:12.783Z,3.90
2023-08-06T17:01:40.721Z,3.80
2023-08-06T17:04:07.823Z,4.00
2023-08-06T17:06:34.856Z,3.40
2023-08-06T17:09:04.946Z,3.40
2023-08-06T17:11:35.344Z,3.47
2023-08-06T17:14:02.536Z,3.60
2023-08-06T17:16:29.546Z,3.43
2023-08-06T17:18:56.457Z,3.63
2023-08-06T17:21:23.590Z,4.33
2023-08-06T17:23:50.639Z,4.03
2023-08-06T17:26:18.020Z,3.40
2023-08-06T17:28:45.529Z,4.03
2023-08-06T17:31:12.572Z,3.50
2023-08-06T17:33:40.100Z,3.30
2023-08-06T17:36:07.242Z,2.70
2023-08-06T17:38:34.248Z,2.37
2023-08-06T17:41:03.827Z,2.60
2023-08-06T17:43:34.656Z,2.93
2023-08-06T17:46:01.613Z,3.13
2023-08-06T17:48:29.956Z,2.60
2023-08-06T17:50:56.942Z,3.03
2023-08-06T17:53:24.279Z,2.93
2023-08-06T17:55:51.292Z,2.33
2023-08-06T17:58:18.541Z,2.40
2023-08-06T18:00:49.769Z,1.90
2023-08-06T18:03:18.600Z,1.90
2023-08-06T18:05:45.531Z,1.87
2023-08-06T18:08:12.677Z,2.20
2023-08-06T18:10:40.830Z,1.70
2023-08-06T18:13:07.693Z,2.00
2023-08-06T18:15:34.766Z,2.20
2023-08-06T18:18:02.773Z,2.60
2023-08-06T18:20:31.134Z,1.90
2023-08-06T18:22:58.117Z,1.93
2023-08-06T18:25:25.230Z,2.47
2023-08-06T18:27:52.316Z,2.27
2023-08-06T18:30:19.511Z,2.03
2023-08-06T18:32:47.682Z,2.00
2023-08-06T18:35:15.247Z,1.90
2023-08-06T18:37:42.774Z,1.90
2023-08-06T18:40:11.111Z,1.87
2023-08-06T18:42:40.183Z,2.23
2023-08-06T18:45:09.466Z,1.93
2023-08-06T18:47:36.227Z,1.97
2023-08-06T18:50:03.559Z,2.13
2023-08-06T18:52:30.416Z,2.13
2023-08-06T18:54:57.388Z,2.03
2023-08-06T18:57:24.534Z,1.80
2023-08-06T18:59:53.056Z,2.13
2023-08-06T19:02:19.864Z,1.90
2023-08-06T19:04:48.654Z,2.70
2023-08-06T19:07:16.248Z,2.10
2023-08-06T19:09:46.874Z,2.10
2023-08-06T19:12:15.209Z,2.13
2023-08-06T19:14:42.920Z,2.23
2023-08-06T19:17:09.766Z,1.93
2023-08-06T19:19:36.877Z,2.07
2023-08-06T19:22:04.260Z,2.03
2023-08-06T19:24:31.116Z,2.40
2023-08-06T19:26:58.270Z,2.53
2023-08-06T19:29:26.297Z,2.50
2023-08-06T19:32:05.123Z,2.30
2023-08-06T19:34:35.029Z,2.23
2023-08-06T19:37:02.183Z,2.20
2023-08-06T19:39:28.945Z,2.00
2023-08-06T19:41:56.131Z,2.20
2023-08-06T19:44:23.377Z,2.00
2023-08-06T19:46:50.129Z,2.20
2023-08-06T19:49:17.005Z,2.33
2023-08-06T19:51:43.981Z,2.50
2023-08-06T19:54:11.878Z,2.17
2023-08-06T19:56:38.713Z,2.40
2023-08-06T19:59:05.563Z,1.83
2023-08-06T20:01:32.678Z,2.60
2023-08-06T20:03:59.607Z,2.40
2023-08-06T20:06:30.930Z,2.20
2023-08-06T20:08:58.377Z,2.80
2023-08-06T20:11:25.212Z,3.60
2023-08-06T20:13:52.327Z,2.70
2023-08-06T20:16:19.787Z,2.53
2023-08-06T20:18:46.875Z,2.10
2023-08-06T20:21:14.063Z,3.37
2023-08-06T20:23:42.172Z,2.10
2023-08-06T20:26:09.652Z,3.30
2023-08-06T20:28:36.612Z,2.57
2023-08-06T20:31:03.930Z,2.57
2023-08-06T20:33:31.020Z,2.50
2023-08-06T20:35:58.040Z,3.20
2023-08-06T20:38:25.826Z,2.30
2023-08-06T20:40:52.733Z,2.60
2023-08-06T20:43:21.037Z,2.50
2023-08-06T20:46:05.729Z,2.97
2023-08-06T20:48:32.735Z,2.23
2023-08-06T20:50:59.569Z,2.03
2023-08-06T20:53:27.394Z,2.13
2023-08-06T20:56:05.183Z,1.90
2023-08-06T20:58:32.841Z,1.70
2023-08-06T21:01:01.652Z,2.83
2023-08-06T21:03:31.506Z,2.00
2023-08-06T21:06:06.276Z,2.00
2023-08-06T21:08:34.311Z,2.03
2023-08-06T21:11:01.946Z,2.03
2023-08-06T21:13:30.351Z,1.80
2023-08-06T21:16:04.417Z,2.30
2023-08-06T21:18:33.437Z,2.30
2023-08-06T21:21:01.920Z,2.10
2023-08-06T21:23:30.714Z,1.73
2023-08-06T21:26:02.698Z,2.13
2023-08-06T21:28:31.409Z,2.00
2023-08-06T21:31:00.392Z,1.90
2023-08-06T21:33:32.514Z,1.73
2023-08-06T21:36:03.247Z,1.77
2023-08-06T21:38:31.632Z,2.03
2023-08-06T21:41:04.905Z,2.03
2023-08-06T21:43:45.879Z,2.40
2023-08-06T21:46:15.210Z,2.00
2023-08-06T21:48:45.095Z,2.13
2023-08-06T21:51:19.667Z,2.03
2023-08-06T21:53:47.584Z,2.10
2023-08-06T21:56:15.370Z,2.03
2023-08-06T21:58:44.128Z,2.23
2023-08-06T22:01:12.792Z,2.37
2023-08-06T22:03:41.242Z,2.30
2023-08-06T22:06:09.098Z,2.13
2023-08-06T22:08:36.062Z,2.13
2023-08-06T22:11:04.110Z,2.10
2023-08-06T22:13:34.270Z,2.40
2023-08-06T22:16:01.196Z,2.20
2023-08-06T22:18:28.150Z,2.70
2023-08-06T22:20:58.728Z,2.50
2023-08-06T22:23:26.092Z,2.80
2023-08-06T22:25:53.161Z,2.57
2023-08-06T22:28:22.361Z,3.07
2023-08-06T22:30:49.215Z,2.50
2023-08-06T22:33:16.458Z,2.57
2023-08-06T22:35:43.394Z,3.03
2023-08-06T22:38:10.249Z,2.87
2023-08-06T22:40:44.807Z,3.10
2023-08-06T22:43:11.928Z,2.93
2023-08-06T22:45:38.839Z,3.00
2023-08-06T22:48:05.857Z,2.83
2023-08-06T22:50:32.719Z,4.03
2023-08-06T22:52:59.443Z,2.60
2023-08-06T22:55:52.430Z,2.70
2023-08-06T22:58:12.863Z,2.90
2023-08-06T23:00:39.644Z,2.30
2023-08-06T23:03:11.405Z,2.50
2023-08-06T23:05:40.752Z,2.40
2023-08-06T23:08:08.610Z,2.30
2023-08-06T23:10:36.035Z,1.80
2023-08-06T23:13:02.930Z,2.20
2023-08-06T23:15:29.894Z,2.20
2023-08-06T23:17:56.703Z,1.97
2023-08-06T23:20:23.543Z,2.27
2023-08-06T23:22:50.640Z,1.90
2023-08-06T23:25:17.884Z,2.10
2023-08-06T23:27:44.617Z,2.23
2023-08-06T23:30:12.146Z,2.53
2023-08-06T23:32:41.040Z,2.70
2023-08-06T23:35:08.090Z,2.30
2023-08-06T23:37:34.867Z,1.97
2023-08-06T23:40:01.874Z,2.70
2023-08-06T23:42:28.907Z,2.40
2023-08-06T23:44:55.710Z,2.50
2023-08-06T23:47:22.615Z,2.30
2023-08-06T23:49:49.966Z,3.50
2023-08-06T23:52:17.154Z,2.90
2023-08-06T23:54:43.994Z,3.10
2023-08-06T23:57:10.708Z,3.33
2023-08-06T23:59:37.732Z,2.77
